Summerfield, NC (27358)

3:50 PM EDT on September 23, 2014 (GMT -0400)
Stable Ridge Subdivision | Change Station
CLOSE
Current Station
Personal Weather Station
Location: Summerfield, NC
Elevation: 837 ft
Nearby Weather Stations

Elev 837 ft 36.19 °N, 79.87 °W | Updated 29 seconds ago

Overcast
Overcast
60.0 °F
Feels Like 60.0 °F
N
0.0
Wind Variable Wind from East
Gusts 1.0 mph

Today
High -- | Low -- °F
--% Chance of Precip.
Yesterday
High -- | Low -- °F
Precip. -- in
7:08 AM 7:14 PM
Waning Crescent, 0% visible
Pressure 30.31 in
Visibility 10.0 miles
Clouds Scattered Clouds 8000 ft
Mostly Cloudy 11000 ft
Overcast 25000 ft
Dew Point 51 °F
Humidity 72%
Rainfall 0.00 in
Snow Depth Not available.
UV 0.5 out of 12
Pollen 6.10 out of 12
Ozone Good
PM2.5 Good
Flu Activity Not available.
METAR KGSO 231854Z 03008KT 10SM SCT080 BKN110 OVC250 15/08 A3032 RMK AO2 SLP264 T01500078

More Conditions Fewer Conditions

Pressure 30.31 in
Visibility 10.0 miles
Clouds Scattered Clouds 8000 ft
Mostly Cloudy 11000 ft
Overcast 25000 ft
Dew Point 51 °F
Humidity 72%
Rainfall 0.00 in
Snow Depth Not available.
UV 0.5 out of 12
Pollen 6.10 out of 12
Ozone Good
PM2.5 Good
Flu Activity Not available.
METAR KGSO 231854Z 03008KT 10SM SCT080 BKN110 OVC250 15/08 A3032 RMK AO2 SLP264 T01500078

More Conditions Fewer Conditions

10-Day Weather Forecast

Almanac

Astronomy

Sep. 23, 2014 Rise Set
Actual Time 7:08 AM EDT 7:14 PM EDT
Civil Twilight 6:42 AM EDT 7:40 PM EDT
Nautical Twilight 6:12 AM EDT 8:10 PM EDT
Astronomical Twilight 5:42 AM EDT 8:40 PM EDT
Moon 6:31 AM EDT 6:53 PM EDT
Length of Visible Light 12h 57m
Length of Day
12h 06m
Tomorrow will be 2m 16s shorter.
Waning Crescent, 0% of the Moon is Illuminated
Today
Waning Crescent
Sep 24
New
Oct 1
First Quarter
Oct 8
Full
Oct 15
Last Quarter

Today's Extremes

State Highs State Lows

Community

WunderPhotos

Upload Photos

1,755,788 photos uploaded!

WunderBlogs® & News

Nearby

Air Quality

  Air Quality AQ Index Pollutant
Yesterday Good
OZONE
Yesterday Good
PM2.5
Current Good
PM2.5
Current Good
OZONE
Tuesday Good
PM2.5
Tuesday Good
OZONE
Wednesday Good
PM2.5
Wednesday Good
OZONE
Thursday Good
PM2.5
Thursday Good
OZONE
Friday Good
PM2.5
Friday Good
OZONE

Snow Depth

Station Depth Elevation
No new snow has been reported.

Earthquake Activity

City Distance Mag. Time & Date
No recent earthquake activity has been reported nearby.
Minimum magnitude displayed is 2.5.

Coastal Water Temperatures

Place Temperature
No Stations Reporting

Nearby Weather Stations